Joshua, Illinois
Current Conditions -  °F | °C
As of 9:15 PM on Thursday 18 Dec 2014 (Local Time) from KGBG Reporting Station
Overcast Overcast  
Wind Chill: 21°   Ceiling: 4200
Heat Index: 27°   Visibility: 10mi
Dew Point: 23°   Wind: 6mph
Humidity: 83%   Direction: 10°N
Pressure: 30.28"   Gusts: NA
Location:  40.6688°N, 90.1616°W
Report Text: KGBG 190315Z AUTO 01005KT 10SM OVC042 M03/M05 A3028 RMK AO2 T10271052
Loading
Personal Weather Stations






























Interactive Weather Map New forecast layout! Learn more

10-Day Weather Forecast

Advertisements
Track Severe Weather on mobile